Time;durP1;ratioP1;P1;durP2;ratioP2;P2;SDS_P1;SDS_P2;PMS_P1;PMS_P2;Temp;Humidity;BMP_temperature;BMP_pressure;BME280_temperature;BME280_humidity;BME280_pressure;Samples;Min_cycle;Max_cycle;Signal;HPM_P1;HPM_P2
2022/03/24 00:01:00;;;;;;;38.40;22.60;;;;;;;2.39;53.18;101723.86;84856;1323;25312;-72
2022/03/24 00:03:09;;;;;;;44.70;24.60;;;;;;;2.31;53.24;101724.94;84858;1323;24099;-80
2022/03/24 00:05:17;;;;;;;43.70;24.90;;;;;;;2.22;53.61;101725.98;84868;1321;22596;-80
2022/03/24 00:07:26;;;;;;;47.00;25.90;;;;;;;2.14;53.71;101725.48;84879;1323;22592;-80
2022/03/24 00:09:35;;;;;;;41.50;23.70;;;;;;;2.06;54.06;101726.04;84829;1318;22583;-82
2022/03/24 00:11:43;;;;;;;40.60;24.20;;;;;;;1.98;54.18;101721.92;84173;1322;1003216;-72
2022/03/24 00:13:52;;;;;;;46.90;25.80;;;;;;;1.91;54.18;101725.92;84877;1324;22914;-73
2022/03/24 00:16:00;;;;;;;47.50;24.40;;;;;;;1.83;54.33;101724.73;84850;1325;23915;-72
2022/03/24 00:18:09;;;;;;;42.40;23.20;;;;;;;1.74;54.52;101723.02;84865;1322;22585;-73
2022/03/24 00:20:17;;;;;;;42.50;24.20;;;;;;;1.68;54.76;101723.23;84832;1324;25434;-72
2022/03/24 00:22:29;;;;;;;43.00;24.20;;;;;;;1.63;54.91;101721.76;84889;1323;23827;-73
2022/03/24 00:24:39;;;;;;;44.20;24.60;;;;;;;1.56;55.03;101722.81;84892;1324;24248;-72
2022/03/24 00:27:03;;;;;;;38.90;23.30;;;;;;;1.50;55.27;101723.90;84843;1319;22652;-73
2022/03/24 00:29:13;;;;;;;43.70;25.20;;;;;;;1.44;55.50;101724.11;84842;1325;22696;-72
2022/03/24 00:31:31;;;;;;;35.50;22.60;;;;;;;1.36;55.77;101726.70;84863;1322;22875;-79
2022/03/24 00:33:39;;;;;;;44.40;25.20;;;;;;;1.29;55.81;101726.02;84851;1323;22529;-80
2022/03/24 00:35:47;;;;;;;40.80;23.10;;;;;;;1.23;56.01;101724.35;84852;1322;22679;-81
2022/03/24 00:37:56;;;;;;;43.90;24.70;;;;;;;1.15;56.12;101725.57;84910;1323;22750;-80
2022/03/24 00:40:07;;;;;;;42.70;24.80;;;;;;;1.10;56.42;101727.52;84874;1322;25439;-81
2022/03/24 00:42:21;;;;;;;50.70;22.80;;;;;;;1.07;56.75;101725.89;84859;1322;22607;-79
2022/03/24 00:44:29;;;;;;;40.80;24.20;;;;;;;1.05;57.07;101720.70;84845;1322;22624;-81
2022/03/24 00:46:38;;;;;;;41.80;24.20;;;;;;;1.06;57.05;101724.84;84848;1323;22590;-78
2022/03/24 00:48:46;;;;;;;44.20;24.10;;;;;;;1.07;56.95;101721.06;84868;1322;23929;-80
2022/03/24 00:50:55;;;;;;;45.50;23.80;;;;;;;1.06;57.19;101723.48;84835;1322;24271;-80
2022/03/24 00:53:03;;;;;;;45.30;25.20;;;;;;;1.04;57.17;101717.59;84129;1319;1003440;-78
2022/03/24 00:55:16;;;;;;;42.60;26.00;;;;;;;1.01;57.56;101715.46;84852;1322;22784;-80
2022/03/24 00:57:24;;;;;;;41.90;23.70;;;;;;;0.98;57.34;101718.14;84890;1323;22669;-73
2022/03/24 00:59:36;;;;;;;38.00;22.90;;;;;;;0.93;57.36;101722.32;84874;1322;26475;-72
2022/03/24 01:01:44;;;;;;;44.60;25.20;;;;;;;0.87;57.60;101719.24;84846;1324;22883;-80
2022/03/24 01:03:53;;;;;;;43.10;23.70;;;;;;;0.79;57.32;101717.17;84874;1323;22596;-80
2022/03/24 01:06:03;;;;;;;38.60;22.30;;;;;;;0.73;57.75;101720.12;84846;1326;26497;-81
2022/03/24 01:08:13;;;;;;;;;;;;;;;0.68;57.82;101715.52;84881;1323;23940;-73
2022/03/24 01:10:22;;;;;;;41.70;23.20;;;;;;;0.62;58.11;101714.02;84873;1322;24280;-72
2022/03/24 01:12:34;;;;;;;40.90;22.80;;;;;;;0.58;58.35;101713.94;84905;1322;25451;-72
2022/03/24 01:14:44;;;;;;;44.60;24.00;;;;;;;0.53;58.43;101715.02;84857;1323;22700;-72
2022/03/24 01:16:53;;;;;;;37.10;23.90;;;;;;;0.48;58.69;101714.72;84847;1321;22601;-81
2022/03/24 01:19:01;;;;;;;43.40;23.10;;;;;;;0.45;58.68;101717.55;84162;1322;1002997;-82
2022/03/24 01:21:11;;;;;;;41.00;23.80;;;;;;;0.41;58.82;101715.23;84842;1323;22788;-81
2022/03/24 01:23:23;;;;;;;42.20;25.00;;;;;;;0.36;59.13;101711.33;84851;1322;24267;-73
2022/03/24 01:25:36;;;;;;;39.50;24.20;;;;;;;0.32;59.01;101712.42;84888;1316;22600;-73
2022/03/24 01:27:45;;;;;;;43.10;23.90;;;;;;;0.28;59.40;101712.66;84875;1322;22774;-81
2022/03/24 01:29:54;;;;;;;43.70;24.20;;;;;;;0.22;59.62;101713.38;84877;1323;24232;-81
2022/03/24 01:32:03;;;;;;;40.30;23.90;;;;;;;0.18;59.60;101712.59;84877;1323;22582;-72
2022/03/24 01:34:12;;;;;;;40.30;23.20;;;;;;;0.14;59.38;101716.23;84860;1322;22578;-72
2022/03/24 01:36:20;;;;;;;40.00;22.60;;;;;;;0.09;59.35;101711.31;84152;1324;1003062;-73
2022/03/24 01:38:29;;;;;;;42.20;24.40;;;;;;;0.04;59.39;101709.27;84870;1318;22804;-72
2022/03/24 01:40:38;;;;;;;40.90;24.30;;;;;;;-0.04;59.87;101713.38;84849;1322;22798;-72
2022/03/24 01:42:47;;;;;;;45.20;25.70;;;;;;;-0.10;59.88;101709.44;84914;1322;22591;-81
2022/03/24 01:45:00;;;;;;;43.30;24.00;;;;;;;-0.15;59.61;101708.44;84862;1323;25415;-80
2022/03/24 01:47:12;;;;;;;42.50;25.10;;;;;;;-0.21;60.15;101712.40;84861;1321;22863;-72
2022/03/24 01:49:24;;;;;;;40.60;23.80;;;;;;;-0.29;60.45;101710.11;84887;1327;22619;-71
2022/03/24 01:51:36;;;;;;;44.80;25.70;;;;;;;-0.37;60.63;101711.44;84894;1323;22602;-77
2022/03/24 01:53:45;;;;;;;43.00;24.20;;;;;;;-0.44;60.82;101713.45;84871;1322;22701;-80
2022/03/24 01:55:54;;;;;;;39.70;24.60;;;;;;;-0.50;60.87;101712.27;84860;1323;25252;-80
2022/03/24 01:58:04;;;;;;;41.50;25.00;;;;;;;-0.56;61.08;101711.27;84905;1323;22700;-72
2022/03/24 02:00:14;;;;;;;44.00;24.00;;;;;;;-0.59;61.22;101710.81;84868;1323;22885;-73
2022/03/24 02:02:23;;;;;;;37.30;23.20;;;;;;;-0.63;61.59;101711.04;84855;1323;24251;-80
2022/03/24 02:04:35;;;;;;;40.10;23.10;;;;;;;-0.65;61.82;101711.14;84850;1323;25431;-79
2022/03/24 02:06:46;;;;;;;42.10;24.40;;;;;;;-0.66;61.92;101710.44;84862;1322;22599;-78
2022/03/24 02:08:57;;;;;;;45.90;25.60;;;;;;;-0.67;62.04;101710.56;84867;1325;24390;-80
2022/03/24 02:11:07;;;;;;;46.60;25.10;;;;;;;-0.69;62.04;101711.88;84869;1323;22635;-80
2022/03/24 02:13:21;;;;;;;47.30;25.70;;;;;;;-0.72;62.17;101710.09;84885;1323;22579;-72
2022/03/24 02:15:30;;;;;;;43.40;25.20;;;;;;;-0.75;62.28;101712.06;84853;1324;22600;-72
2022/03/24 02:17:41;;;;;;;43.90;25.20;;;;;;;-0.78;62.29;101711.61;84880;1322;22581;-79
2022/03/24 02:19:49;;;;;;;44.10;25.60;;;;;;;-0.82;62.33;101715.11;84842;1322;22831;-79
2022/03/24 02:21:58;;;;;;;49.80;28.10;;;;;;;-0.84;62.37;101714.00;84886;1322;22603;-77
2022/03/24 02:24:12;;;;;;;43.80;26.80;;;;;;;-0.88;62.51;101714.39;84878;1322;22721;-79
2022/03/24 02:26:21;;;;;;;58.50;28.80;;;;;;;-0.93;62.69;101717.51;84857;1322;22868;-78
2022/03/24 02:28:32;;;;;;;51.40;26.50;;;;;;;-0.98;62.68;101717.86;84892;1323;22586;-79
2022/03/24 02:30:41;;;;;;;53.00;27.90;;;;;;;-1.02;63.06;101718.08;84862;1318;22619;-80
2022/03/24 02:32:53;;;;;;;60.20;30.00;;;;;;;-1.06;63.12;101714.21;84843;1323;26600;-73
2022/03/24 02:35:05;;;;;;;47.30;26.30;;;;;;;-1.08;63.31;101714.84;84874;1322;24304;-72
2022/03/24 02:37:17;;;;;;;48.60;28.30;;;;;;;-1.11;63.40;101716.10;84904;1314;24230;-80
2022/03/24 02:39:26;;;;;;;51.00;28.50;;;;;;;-1.13;63.71;101714.66;84888;1324;22594;-80
2022/03/24 02:41:47;;;;;;;50.10;26.50;;;;;;;-1.16;64.02;101712.52;84888;1323;24181;-79
2022/03/24 02:43:58;;;;;;;45.50;26.60;;;;;;;-1.19;64.00;101717.05;84875;1322;24288;-80
2022/03/24 02:46:10;;;;;;;44.00;26.00;;;;;;;-1.20;64.22;101718.56;84885;1319;22818;-79
2022/03/24 02:48:22;;;;;;;45.00;26.10;;;;;;;-1.23;64.33;101719.48;84888;1323;22571;-79
2022/03/24 02:50:30;;;;;;;48.40;27.70;;;;;;;-1.23;64.40;101720.69;84879;1323;22626;-79
2022/03/24 02:52:39;;;;;;;48.90;28.20;;;;;;;-1.23;64.42;101722.05;84858;1324;22610;-73
2022/03/24 02:54:49;;;;;;;49.90;28.50;;;;;;;-1.25;64.60;101724.90;84907;1326;22586;-72
2022/03/24 02:56:57;;;;;;;52.80;28.90;;;;;;;-1.28;64.54;101723.11;84884;1323;22579;-72
2022/03/24 02:59:09;;;;;;;55.10;28.80;;;;;;;-1.29;64.68;101724.77;84870;1322;22577;-72
2022/03/24 03:01:18;;;;;;;52.10;29.70;;;;;;;-1.31;64.64;101726.09;84152;1323;1002603;-74
2022/03/24 03:03:26;;;;;;;51.80;28.30;;;;;;;-1.34;64.89;101725.30;84905;1326;25454;-80
2022/03/24 03:05:35;;;;;;;52.80;30.40;;;;;;;-1.39;65.03;101726.16;84788;1325;22611;-80
2022/03/24 03:07:44;;;;;;;59.60;30.30;;;;;;;-1.47;65.28;101725.39;84930;1322;22623;-72
2022/03/24 03:09:53;;;;;;;55.70;32.40;;;;;;;-1.54;65.33;101728.77;84872;1323;25359;-72
2022/03/24 03:12:01;;;;;;;57.50;28.80;;;;;;;-1.61;65.53;101727.19;84883;1326;23382;-80
2022/03/24 03:14:13;;;;;;;49.70;28.40;;;;;;;-1.65;65.66;101728.04;84917;1324;22838;-78
2022/03/24 03:16:24;;;;;;;58.40;30.80;;;;;;;-1.67;65.80;101728.65;84860;1323;25444;-79
2022/03/24 03:18:35;;;;;;;55.80;30.90;;;;;;;-1.67;66.07;101727.29;84867;1322;23969;-72
2022/03/24 03:20:44;;;;;;;49.90;28.40;;;;;;;-1.67;66.09;101730.55;84874;1324;22829;-72
2022/03/24 03:22:55;;;;;;;55.50;31.70;;;;;;;-1.66;66.26;101725.27;84866;1323;24249;-79
2022/03/24 03:25:04;;;;;;;56.90;29.70;;;;;;;-1.65;66.34;101729.27;84861;1322;26535;-79
2022/03/24 03:27:15;;;;;;;57.70;32.20;;;;;;;-1.63;66.34;101728.27;84892;1322;22598;-78
2022/03/24 03:29:24;;;;;;;59.40;31.20;;;;;;;-1.62;66.37;101729.52;84867;1323;25298;-79
2022/03/24 03:31:35;;;;;;;54.70;31.60;;;;;;;-1.63;66.51;101730.36;84847;1322;23945;-78
2022/03/24 03:33:44;;;;;;;57.40;32.80;;;;;;;-1.63;66.49;101733.45;84878;1323;23396;-80
2022/03/24 03:35:53;;;;;;;62.10;31.30;;;;;;;-1.64;66.35;101735.62;84859;1323;22679;-79
2022/03/24 03:38:02;;;;;;;54.20;29.90;;;;;;;-1.67;66.26;101737.23;84158;1322;1003850;-73
2022/03/24 03:40:15;;;;;;;61.40;33.20;;;;;;;-1.70;66.50;101741.73;84662;1324;272000;-72
2022/03/24 03:42:25;;;;;;;55.10;30.10;;;;;;;-1.72;66.46;101742.00;84187;1319;1002938;-79
2022/03/24 03:44:36;;;;;;;57.30;31.60;;;;;;;-1.74;66.52;101740.38;84842;1324;22545;-80
2022/03/24 03:46:44;;;;;;;59.50;32.60;;;;;;;-1.78;66.75;101743.86;84866;1324;24212;-79
2022/03/24 03:48:53;;;;;;;57.90;31.50;;;;;;;-1.83;66.95;101741.14;84875;1323;25606;-79
2022/03/24 03:51:05;;;;;;;58.20;30.90;;;;;;;-1.88;67.03;101741.14;84858;1322;22914;-80
2022/03/24 03:53:14;;;;;;;58.10;32.20;;;;;;;-1.91;67.11;101739.64;84885;1326;22797;-80
2022/03/24 03:55:22;;;;;;;51.20;31.30;;;;;;;-1.93;67.20;101741.12;84886;1320;25572;-80
2022/03/24 03:57:32;;;;;;;53.70;29.00;;;;;;;-1.95;67.27;101741.73;84888;1322;22580;-73
2022/03/24 03:59:43;;;;;;;54.50;30.60;;;;;;;-1.96;67.37;101745.11;84887;1322;22590;-72
2022/03/24 04:01:52;;;;;;;51.40;31.30;;;;;;;-1.95;67.49;101750.97;84858;1324;22805;-80
2022/03/24 04:04:00;;;;;;;57.60;31.90;;;;;;;-1.93;67.56;101747.95;84865;1319;22613;-80
2022/03/24 04:06:10;;;;;;;56.00;30.90;;;;;;;-1.92;67.47;101749.87;84856;1323;22587;-80
2022/03/24 04:08:18;;;;;;;62.30;32.10;;;;;;;-1.95;67.35;101748.59;84887;1323;22536;-79
2022/03/24 04:10:30;;;;;;;61.30;32.20;;;;;;;-1.97;67.27;101746.81;84859;1322;22766;-79
2022/03/24 04:12:43;;;;;;;58.00;31.60;;;;;;;-2.00;67.61;101747.04;84154;1323;1002948;-77
2022/03/24 04:14:52;;;;;;;58.70;32.30;;;;;;;-2.03;67.63;101750.16;84887;1322;22584;-80
2022/03/24 04:17:03;;;;;;;65.00;33.60;;;;;;;-2.08;67.93;101752.76;84932;1324;22581;-71
2022/03/24 04:19:13;;;;;;;56.50;31.30;;;;;;;-2.11;67.79;101751.77;84844;1323;25645;-73
2022/03/24 04:21:22;;;;;;;62.20;33.90;;;;;;;-2.14;68.01;101757.50;84871;1323;22624;-73
2022/03/24 04:23:31;;;;;;;53.90;30.40;;;;;;;-2.16;68.01;101758.25;84842;1326;22883;-71
2022/03/24 04:25:39;;;;;;;54.90;29.90;;;;;;;-2.18;67.98;101755.80;84822;1325;22586;-72
2022/03/24 04:27:47;;;;;;;56.20;30.60;;;;;;;-2.20;68.08;101757.95;84844;1324;22592;-74
2022/03/24 04:29:59;;;;;;;55.40;31.70;;;;;;;-2.21;68.07;101756.88;84822;1327;22586;-71
2022/03/24 04:32:09;;;;;;;57.90;32.70;;;;;;;-2.21;68.17;101757.05;84872;1325;23063;-71
2022/03/24 04:34:19;;;;;;;63.20;35.10;;;;;;;-2.20;68.52;101759.31;84804;1326;25291;-72
2022/03/24 04:36:33;;;;;;;58.80;34.10;;;;;;;-2.21;68.52;101759.79;84920;1323;22653;-72
2022/03/24 04:38:45;;;;;;;57.50;32.90;;;;;;;-2.21;68.57;101762.70;84866;1324;23928;-78
2022/03/24 04:40:56;;;;;;;60.50;32.90;;;;;;;-2.22;68.65;101761.80;84922;1323;25291;-78
2022/03/24 04:43:05;;;;;;;61.00;34.90;;;;;;;-2.22;68.79;101764.52;84890;1325;22867;-77
2022/03/24 04:45:14;;;;;;;59.90;35.80;;;;;;;-2.23;68.88;101761.58;84899;1326;22616;-79
2022/03/24 04:47:23;;;;;;;65.80;35.40;;;;;;;-2.22;68.94;101762.13;84889;1326;22595;-72
2022/03/24 04:49:32;;;;;;;63.80;35.40;;;;;;;-2.23;69.08;101761.60;84924;1323;22615;-72
2022/03/24 04:51:41;;;;;;;65.00;34.80;;;;;;;-2.23;69.17;101762.61;84814;1326;22592;-76
2022/03/24 04:53:53;;;;;;;71.70;37.50;;;;;;;-2.22;69.37;101761.79;84137;1323;1003204;-77
2022/03/24 04:56:02;;;;;;;64.80;36.40;;;;;;;-2.22;69.45;101759.77;84791;1327;22603;-78
2022/03/24 04:58:13;;;;;;;62.20;36.20;;;;;;;-2.19;69.51;101762.42;84788;1327;24212;-78
2022/03/24 05:00:24;;;;;;;66.90;37.00;;;;;;;-2.16;69.78;101761.52;84799;1326;22592;-78
2022/03/24 05:02:33;;;;;;;68.00;38.60;;;;;;;-2.11;69.89;101764.25;84756;1327;24182;-73
2022/03/24 05:04:42;;;;;;;65.10;35.40;;;;;;;-2.05;69.86;101757.96;84817;1326;22606;-72
2022/03/24 05:06:50;;;;;;;64.40;36.00;;;;;;;-2.00;69.86;101755.75;84706;1329;22763;-77
2022/03/24 05:09:02;;;;;;;72.70;35.70;;;;;;;-1.94;69.88;101754.92;84812;1327;24245;-79
2022/03/24 05:11:10;;;;;;;69.20;37.00;;;;;;;-1.88;69.86;101753.44;84788;1326;22594;-79
2022/03/24 05:13:22;;;;;;;67.60;37.90;;;;;;;-1.82;70.07;101755.70;84841;1326;25298;-78
2022/03/24 05:15:32;;;;;;;72.40;39.00;;;;;;;-1.60;70.26;101755.93;84746;1329;24091;-79
2022/03/24 05:17:44;;;;;;;65.60;39.20;;;;;;;-0.92;70.57;101758.30;84835;1326;22595;-76
2022/03/24 05:19:56;;;;;;;69.90;39.30;;;;;;;-0.05;71.38;101755.69;84807;1321;22579;-73
2022/03/24 05:22:06;;;;;;;67.70;39.30;;;;;;;0.94;70.39;101755.64;84834;1325;25430;-73
2022/03/24 05:24:14;;;;;;;69.50;39.70;;;;;;;1.86;69.25;101749.73;84829;1326;22826;-72
2022/03/24 05:26:26;;;;;;;73.00;40.50;;;;;;;2.39;66.46;101751.08;84783;1325;24321;-73
2022/03/24 05:28:35;;;;;;;66.00;39.10;;;;;;;2.43;64.59;101752.02;84811;1325;22588;-75
2022/03/24 05:30:50;;;;;;;67.90;37.30;;;;;;;2.27;63.28;101754.30;84775;1327;24258;-70
2022/03/24 05:33:00;;;;;;;64.70;38.00;;;;;;;1.98;62.79;101755.67;84079;1326;1016028;-77
2022/03/24 05:35:09;;;;;;;68.10;38.50;;;;;;;1.80;62.89;101757.88;84802;1326;22826;-78
2022/03/24 05:37:19;;;;;;;65.30;38.40;;;;;;;1.63;63.17;101756.33;84835;1327;22616;-72
2022/03/24 05:39:26;;;;;;;;;;;;;;;1.50;63.40;101758.30;84826;1328;22564;-73
2022/03/24 05:41:38;;;;;;;71.80;39.90;;;;;;;1.37;63.43;101758.36;84799;1329;22751;-77
2022/03/24 05:44:04;;;;;;;67.80;39.00;;;;;;;1.31;63.72;101759.95;84804;1327;24276;-79
2022/03/24 05:46:23;;;;;;;72.30;39.90;;;;;;;1.25;64.19;101761.52;84829;1327;22619;-81
2022/03/24 05:48:34;;;;;;;74.70;38.60;;;;;;;1.24;64.45;101763.92;84779;1321;23128;-82
2022/03/24 05:50:45;;;;;;;65.90;38.10;;;;;;;1.30;64.86;101762.16;84855;1327;22617;-80
2022/03/24 05:52:58;;;;;;;65.30;36.60;;;;;;;1.42;65.04;101764.32;84817;1327;23803;-72
2022/03/24 05:55:09;;;;;;;69.70;38.90;;;;;;;1.95;65.90;101764.70;84751;1326;22593;-71
2022/03/24 05:57:17;;;;;;;60.70;36.40;;;;;;;3.04;67.22;101764.70;84843;1325;22603;-80
2022/03/24 05:59:27;;;;;;;66.20;35.00;;;;;;;4.36;66.85;101761.35;84812;1326;22590;-81
2022/03/24 06:01:36;;;;;;;59.10;36.70;;;;;;;5.73;65.60;101752.45;84839;1326;22610;-83
2022/03/24 06:03:45;;;;;;;60.30;35.60;;;;;;;7.01;61.88;101755.44;84828;1325;22602;-84
2022/03/24 06:05:54;;;;;;;59.40;37.20;;;;;;;8.03;58.29;101747.98;84696;1330;24254;-84
2022/03/24 06:08:07;;;;;;;52.60;34.70;;;;;;;8.82;55.33;101745.72;84768;1329;25441;-84
2022/03/24 06:10:16;;;;;;;48.70;33.10;;;;;;;9.76;53.45;101740.71;84764;1327;22763;-80
2022/03/24 06:12:24;;;;;;;50.20;35.60;;;;;;;10.72;49.89;101743.15;84856;1326;22581;-81
2022/03/24 06:14:44;;;;;;;45.30;32.40;;;;;;;11.51;47.07;101742.23;84816;1327;25644;-80
2022/03/24 06:16:52;;;;;;;55.40;32.90;;;;;;;12.34;44.91;101735.92;84855;1326;23941;-82
2022/03/24 06:19:04;;;;;;;48.30;32.10;;;;;;;12.80;42.96;101739.70;84781;1327;24239;-83
2022/03/24 06:21:14;;;;;;;48.40;33.20;;;;;;;13.23;41.60;101741.38;84860;1321;24358;-83
2022/03/24 06:23:24;;;;;;;50.10;33.30;;;;;;;13.75;40.02;101742.05;84795;1326;23936;-84
2022/03/24 06:25:37;;;;;;;53.50;33.00;;;;;;;14.19;38.56;101743.01;84725;1328;22596;-72
2022/03/24 06:27:46;;;;;;;48.30;33.00;;;;;;;14.48;37.68;101746.84;84830;1326;22706;-81
2022/03/24 06:29:58;;;;;;;49.70;32.30;;;;;;;14.75;36.99;101749.45;84785;1329;24252;-83
2022/03/24 06:32:09;;;;;;;42.10;31.10;;;;;;;15.02;36.61;101750.13;84832;1329;22604;-72
2022/03/24 06:34:25;;;;;;;47.20;32.00;;;;;;;15.22;35.84;101754.55;84784;1328;25348;-73
2022/03/24 06:36:36;;;;;;;45.00;32.20;;;;;;;15.18;35.07;101754.16;84770;1329;22601;-72
2022/03/24 06:38:45;;;;;;;51.20;31.80;;;;;;;15.23;34.99;101750.44;84783;1326;22586;-74
2022/03/24 06:40:54;;;;;;;45.90;31.60;;;;;;;15.20;34.57;101749.35;84805;1327;25531;-72
2022/03/24 06:43:05;;;;;;;39.10;29.20;;;;;;;14.93;34.65;101753.09;84771;1325;22720;-85
2022/03/24 06:45:15;;;;;;;49.40;32.90;;;;;;;14.91;34.71;101756.13;84798;1318;22664;-84
2022/03/24 06:47:24;;;;;;;45.10;31.90;;;;;;;14.86;34.30;101755.80;84754;1326;25325;-81
2022/03/24 06:49:35;;;;;;;44.50;30.70;;;;;;;15.13;34.84;101760.48;84774;1327;22698;-85
2022/03/24 06:51:44;;;;;;;36.80;28.70;;;;;;;15.66;34.10;101755.27;84776;1326;22583;-73
2022/03/24 06:53:56;;;;;;;46.20;30.90;;;;;;;16.12;33.37;101752.63;84774;1326;24280;-71
2022/03/24 06:56:06;;;;;;;42.70;29.80;;;;;;;16.45;32.46;101756.08;84810;1329;22612;-71
2022/03/24 06:58:18;;;;;;;39.60;28.90;;;;;;;16.66;31.97;101758.73;84756;1328;22656;-72
2022/03/24 07:00:27;;;;;;;37.30;28.50;;;;;;;16.89;31.92;101761.48;84799;1327;24203;-72
2022/03/24 07:02:35;;;;;;;37.60;28.20;;;;;;;17.10;31.16;101757.80;84771;1326;24375;-72
2022/03/24 07:04:44;;;;;;;36.70;28.20;;;;;;;17.24;30.38;101762.14;84745;1326;22650;-72
2022/03/24 07:06:56;;;;;;;34.70;26.10;;;;;;;17.48;30.33;101763.38;84822;1327;22600;-72
2022/03/24 07:09:08;;;;;;;35.40;26.00;;;;;;;17.82;29.45;101756.89;84765;1329;23895;-72
2022/03/24 07:11:18;;;;;;;33.30;25.50;;;;;;;17.80;29.11;101757.36;84810;1326;22587;-73
2022/03/24 07:13:27;;;;;;;32.20;25.60;;;;;;;17.88;29.00;101763.16;84815;1327;22685;-85
2022/03/24 07:15:36;;;;;;;29.70;24.70;;;;;;;18.01;28.60;101763.41;84774;1326;22802;-84
2022/03/24 07:17:45;;;;;;;32.30;24.60;;;;;;;18.27;28.22;101761.87;84768;1328;22586;-84
2022/03/24 07:19:57;;;;;;;31.30;23.20;;;;;;;18.45;27.97;101759.73;84783;1329;22609;-83
2022/03/24 07:22:06;;;;;;;28.20;22.30;;;;;;;18.85;28.00;101759.58;84775;1329;24270;-84
2022/03/24 07:24:15;;;;;;;28.80;21.70;;;;;;;19.10;27.42;101762.88;84778;1326;26531;-86
2022/03/24 07:26:27;;;;;;;27.40;21.90;;;;;;;19.37;26.71;101761.65;84818;1326;22955;-86
2022/03/24 07:28:36;;;;;;;24.80;20.00;;;;;;;19.68;26.35;101760.90;84698;1328;25558;-80
2022/03/24 07:30:50;;;;;;;29.30;22.30;;;;;;;20.05;25.69;101757.10;84826;1322;22622;-85
2022/03/24 07:32:59;;;;;;;25.60;19.60;;;;;;;20.44;25.21;101753.48;84825;1327;23843;-73
2022/03/24 07:35:13;;;;;;;21.00;17.30;;;;;;;20.99;25.03;101755.60;84830;1327;22667;-73
2022/03/24 07:37:22;;;;;;;22.60;17.30;;;;;;;21.47;24.10;101750.77;84807;1326;22596;-73
2022/03/24 07:39:33;;;;;;;22.20;17.00;;;;;;;21.85;23.91;101750.69;84813;1326;23855;-72
2022/03/24 07:41:42;;;;;;;23.70;19.40;;;;;;;21.88;22.73;101747.29;84713;1331;22714;-84
2022/03/24 07:43:50;;;;;;;22.20;18.10;;;;;;;21.93;23.02;101747.85;84828;1329;22597;-85
2022/03/24 07:45:59;;;;;;;22.30;18.40;;;;;;;22.19;23.04;101749.25;84833;1327;22589;-85
2022/03/24 07:48:14;;;;;;;23.60;17.50;;;;;;;22.54;22.58;101748.16;84828;1326;22593;-84
2022/03/24 07:50:26;;;;;;;20.20;17.30;;;;;;;22.99;22.51;101747.67;84837;1328;24593;-83
2022/03/24 07:52:35;;;;;;;23.00;17.50;;;;;;;23.45;21.89;101747.80;84814;1324;25446;-85
2022/03/24 07:54:51;;;;;;;25.00;17.70;;;;;;;23.80;21.37;101736.67;84865;1326;22744;-85
2022/03/24 07:57:00;;;;;;;22.30;17.20;;;;;;;23.85;20.96;101737.73;84877;1327;22589;-84
2022/03/24 07:59:08;;;;;;;19.20;15.30;;;;;;;23.90;20.86;101739.11;84817;1326;22773;-85
2022/03/24 08:01:16;;;;;;;17.70;15.70;;;;;;;24.14;20.60;101738.77;84771;1326;22806;-84
2022/03/24 08:03:25;;;;;;;19.40;15.40;;;;;;;24.23;20.52;101737.41;84819;1327;24604;-83
2022/03/24 08:05:33;;;;;;;19.70;15.90;;;;;;;24.48;20.60;101736.64;84843;1326;22587;-85
2022/03/24 08:07:45;;;;;;;17.20;14.40;;;;;;;24.71;20.04;101733.86;84830;1327;23939;-74
2022/03/24 08:09:53;;;;;;;18.90;12.80;;;;;;;24.73;20.03;101732.80;84835;1328;24230;-72
2022/03/24 08:12:01;;;;;;;14.40;11.80;;;;;;;25.06;19.31;101731.52;84802;1326;22584;-74
2022/03/24 08:14:13;;;;;;;13.30;11.90;;;;;;;25.20;19.18;101731.13;84807;1326;22661;-73
2022/03/24 08:16:25;;;;;;;15.00;12.00;;;;;;;25.32;19.13;101729.85;84838;1326;25548;-73
2022/03/24 08:18:33;;;;;;;15.00;12.10;;;;;;;25.47;18.95;101730.84;84814;1326;22654;-83
2022/03/24 08:20:47;;;;;;;11.80;10.70;;;;;;;25.67;19.00;101727.80;84887;1328;22868;-84
2022/03/24 08:22:56;;;;;;;11.70;10.40;;;;;;;25.90;18.49;101728.52;84836;1329;22613;-73
2022/03/24 08:25:08;;;;;;;11.60;10.40;;;;;;;26.06;18.49;101730.71;84806;1326;22590;-73
2022/03/24 08:27:17;;;;;;;12.50;10.00;;;;;;;26.03;17.78;101732.29;84839;1328;22623;-72
2022/03/24 08:29:25;;;;;;;11.60;10.30;;;;;;;26.11;18.15;101733.67;84839;1324;22614;-73
2022/03/24 08:31:33;;;;;;;12.10;10.10;;;;;;;26.08;17.53;101730.02;84720;1328;22609;-83
2022/03/24 08:33:42;;;;;;;12.70;9.60;;;;;;;25.96;17.75;101729.79;84900;1327;22944;-84
2022/03/24 08:35:50;;;;;;;10.80;9.70;;;;;;;26.02;17.95;101729.24;84814;1322;22592;-84
2022/03/24 08:37:59;;;;;;;11.90;10.70;;;;;;;26.25;17.86;101727.23;84693;1330;22591;-72
2022/03/24 08:40:10;;;;;;;9.90;8.90;;;;;;;26.56;17.94;101728.73;84762;1330;22606;-72
2022/03/24 08:42:21;;;;;;;9.50;7.60;;;;;;;26.77;16.75;101728.20;84861;1327;25357;-72
2022/03/24 08:44:30;;;;;;;9.80;8.20;;;;;;;26.28;16.39;101724.42;84767;1327;23933;-72
2022/03/24 08:46:39;;;;;;;8.90;8.00;;;;;;;26.04;17.04;101726.77;84783;1327;22586;-81
2022/03/24 08:48:48;;;;;;;11.90;7.70;;;;;;;25.99;17.41;101723.45;84826;1327;22577;-85
2022/03/24 08:50:59;;;;;;;10.50;8.00;;;;;;;26.22;17.44;101720.34;84808;1326;22585;-82
2022/03/24 08:53:08;;;;;;;8.80;7.90;;;;;;;26.67;17.30;101718.86;84848;1324;22898;-72
2022/03/24 08:55:19;;;;;;;9.10;7.20;;;;;;;27.03;16.77;101719.72;84715;1329;26720;-73
2022/03/24 08:57:28;;;;;;;10.50;8.30;;;;;;;26.85;16.10;101717.88;84802;1327;22635;-72
2022/03/24 08:59:38;;;;;;;10.90;7.10;;;;;;;26.48;16.31;101721.94;84701;1329;22740;-71
2022/03/24 09:01:49;;;;;;;9.40;7.70;;;;;;;26.16;16.66;101718.46;84798;1322;22742;-72
2022/03/24 09:03:58;;;;;;;7.20;6.20;;;;;;;26.14;16.44;101720.63;84783;1327;23017;-72
2022/03/24 09:06:09;;;;;;;7.10;6.50;;;;;;;26.04;16.58;101719.11;84844;1324;24282;-71
2022/03/24 09:08:18;;;;;;;7.90;7.10;;;;;;;26.11;16.49;101718.37;84822;1327;22592;-84
2022/03/24 09:10:29;;;;;;;7.10;6.40;;;;;;;26.10;16.89;101717.20;84806;1326;22712;-85
2022/03/24 09:12:44;;;;;;;10.20;7.20;;;;;;;26.34;16.94;101717.00;84792;1327;25224;-85
2022/03/24 09:14:52;;;;;;;9.10;6.20;;;;;;;26.44;16.67;101720.30;84802;1327;25311;-86
2022/03/24 09:17:04;;;;;;;9.20;7.80;;;;;;;26.47;16.45;101717.89;84812;1326;22670;-73
2022/03/24 09:19:15;;;;;;;8.20;6.80;;;;;;;26.44;16.65;101715.42;84791;1326;23858;-74
2022/03/24 09:21:29;;;;;;;10.20;7.00;;;;;;;26.71;16.78;101715.17;84817;1327;22601;-74
2022/03/24 09:23:42;;;;;;;11.60;6.50;;;;;;;26.97;16.34;101716.09;84780;1326;22583;-73
2022/03/24 09:25:54;;;;;;;7.10;6.30;;;;;;;27.04;15.96;101717.49;84812;1327;22607;-73
2022/03/24 09:28:03;;;;;;;7.90;7.20;;;;;;;27.01;15.71;101712.21;84676;1329;22620;-71
2022/03/24 09:30:15;;;;;;;10.20;7.30;;;;;;;26.76;15.96;101712.23;84770;1322;22714;-73
2022/03/24 09:32:24;;;;;;;8.60;6.90;;;;;;;26.66;16.21;101711.65;84793;1326;22738;-72
2022/03/24 09:34:32;;;;;;;7.10;6.10;;;;;;;26.67;16.17;101711.34;84820;1327;22543;-71
2022/03/24 09:36:44;;;;;;;9.20;6.90;;;;;;;26.74;16.37;101711.25;84839;1327;22716;-86
2022/03/24 09:38:52;;;;;;;12.90;7.10;;;;;;;26.80;16.19;101707.22;84832;1324;22890;-86
2022/03/24 09:41:01;;;;;;;7.70;6.60;;;;;;;26.95;16.31;101705.39;84820;1318;22606;-86
2022/03/24 09:43:12;;;;;;;7.30;6.60;;;;;;;27.03;15.98;101707.52;84767;1326;22836;-86
2022/03/24 09:45:24;;;;;;;9.20;5.80;;;;;;;27.09;15.96;101706.72;84802;1325;22580;-85
2022/03/24 09:47:36;;;;;;;7.20;4.20;;;;;;;27.15;15.70;101707.56;84818;1326;23527;-73
2022/03/24 09:49:47;;;;;;;5.70;4.50;;;;;;;27.12;15.16;101705.18;84700;1329;22837;-72
2022/03/24 09:51:55;;;;;;;4.70;4.30;;;;;;;27.01;15.02;101704.70;84835;1325;22716;-73
2022/03/24 09:54:05;;;;;;;5.20;4.00;;;;;;;26.71;15.55;101705.42;84788;1327;22770;-72